sensor_id;sensor_type;location;lat;lon;timestamp;pressure;altitude;pressure_sealevel;temperature;humidity
9415;BME280;4746;35.664;139.738;2022-10-30T00:01:56;101056.06;;;20.35;34.22
9415;BME280;4746;35.664;139.738;2022-10-30T00:04:24;101058.44;;;20.47;33.89
9415;BME280;4746;35.664;139.738;2022-10-30T00:06:52;101040.81;;;20.60;33.70
9415;BME280;4746;35.664;139.738;2022-10-30T00:09:19;101035.47;;;20.67;33.61
9415;BME280;4746;35.664;139.738;2022-10-30T00:11:50;101036.97;;;20.80;33.50
9415;BME280;4746;35.664;139.738;2022-10-30T00:14:20;101041.16;;;20.86;33.27
9415;BME280;4746;35.664;139.738;2022-10-30T00:16:48;101046.13;;;20.97;33.54
9415;BME280;4746;35.664;139.738;2022-10-30T00:19:15;101039.00;;;21.05;33.47
9415;BME280;4746;35.664;139.738;2022-10-30T00:21:43;101037.22;;;21.06;33.08
9415;BME280;4746;35.664;139.738;2022-10-30T00:24:11;101034.56;;;21.09;32.74
9415;BME280;4746;35.664;139.738;2022-10-30T00:26:38;101036.13;;;21.16;32.96
9415;BME280;4746;35.664;139.738;2022-10-30T00:29:06;101033.41;;;21.20;33.00
9415;BME280;4746;35.664;139.738;2022-10-30T00:31:35;101043.59;;;21.31;32.75
9415;BME280;4746;35.664;139.738;2022-10-30T00:34:03;101040.03;;;21.35;32.64
9415;BME280;4746;35.664;139.738;2022-10-30T00:36:31;101039.00;;;21.42;32.81
9415;BME280;4746;35.664;139.738;2022-10-30T00:38:59;101037.84;;;21.55;32.60
9415;BME280;4746;35.664;139.738;2022-10-30T00:41:26;101047.09;;;21.67;32.29
9415;BME280;4746;35.664;139.738;2022-10-30T00:43:54;101043.47;;;21.73;32.25
9415;BME280;4746;35.664;139.738;2022-10-30T00:46:33;101038.19;;;21.76;32.21
9415;BME280;4746;35.664;139.738;2022-10-30T00:49:14;101045.97;;;21.77;32.02
9415;BME280;4746;35.664;139.738;2022-10-30T00:51:49;101035.31;;;21.85;32.03
9415;BME280;4746;35.664;139.738;2022-10-30T00:54:19;101042.16;;;21.90;31.63
9415;BME280;4746;35.664;139.738;2022-10-30T00:56:49;101044.63;;;21.95;31.45
9415;BME280;4746;35.664;139.738;2022-10-30T00:59:27;101041.75;;;22.05;31.36
9415;BME280;4746;35.664;139.738;2022-10-30T01:01:57;101037.19;;;22.13;31.26
9415;BME280;4746;35.664;139.738;2022-10-30T01:04:25;101034.41;;;22.19;30.91
9415;BME280;4746;35.664;139.738;2022-10-30T01:06:56;101028.09;;;22.28;30.84
9415;BME280;4746;35.664;139.738;2022-10-30T01:09:25;101027.84;;;22.37;30.67
9415;BME280;4746;35.664;139.738;2022-10-30T01:11:55;101033.56;;;22.50;30.42
9415;BME280;4746;35.664;139.738;2022-10-30T01:14:24;101026.38;;;22.58;30.20
9415;BME280;4746;35.664;139.738;2022-10-30T01:20:38;101023.75;;;22.87;29.92
9415;BME280;4746;35.664;139.738;2022-10-30T01:23:34;101017.25;;;23.02;29.64
9415;BME280;4746;35.664;139.738;2022-10-30T01:26:48;101016.00;;;23.13;29.14
9415;BME280;4746;35.664;139.738;2022-10-30T01:32:34;101017.59;;;23.17;28.88
9415;BME280;4746;35.664;139.738;2022-10-30T01:35:13;101020.06;;;23.21;28.27
9415;BME280;4746;35.664;139.738;2022-10-30T01:40:22;101006.28;;;23.16;28.14
9415;BME280;4746;35.664;139.738;2022-10-30T01:42:55;100999.84;;;23.26;28.37
9415;BME280;4746;35.664;139.738;2022-10-30T02:00:14;100989.50;;;23.49;27.81
9415;BME280;4746;35.664;139.738;2022-10-30T02:02:45;100985.97;;;23.50;27.58
9415;BME280;4746;35.664;139.738;2022-10-30T02:05:40;100975.69;;;23.72;28.13
9415;BME280;4746;35.664;139.738;2022-10-30T02:08:10;100970.56;;;23.93;27.34
9415;BME280;4746;35.664;139.738;2022-10-30T02:10:40;100973.22;;;24.16;27.36
9415;BME280;4746;35.664;139.738;2022-10-30T02:13:08;100968.56;;;24.24;27.17
9415;BME280;4746;35.664;139.738;2022-10-30T02:15:37;100964.84;;;24.29;26.76
9415;BME280;4746;35.664;139.738;2022-10-30T02:18:07;100973.16;;;24.42;26.86
9415;BME280;4746;35.664;139.738;2022-10-30T02:20:35;100965.75;;;24.52;26.72
9415;BME280;4746;35.664;139.738;2022-10-30T02:23:03;100956.22;;;24.73;26.44
9415;BME280;4746;35.664;139.738;2022-10-30T02:25:32;100959.63;;;24.96;26.21
9415;BME280;4746;35.664;139.738;2022-10-30T02:28:00;100957.13;;;25.16;25.88
9415;BME280;4746;35.664;139.738;2022-10-30T02:30:27;100956.47;;;25.31;26.06
9415;BME280;4746;35.664;139.738;2022-10-30T02:32:55;100945.63;;;25.40;25.55
9415;BME280;4746;35.664;139.738;2022-10-30T02:35:23;100945.19;;;25.50;25.53
9415;BME280;4746;35.664;139.738;2022-10-30T02:37:50;100944.25;;;25.51;25.22
9415;BME280;4746;35.664;139.738;2022-10-30T02:40:18;100943.16;;;25.57;26.01
9415;BME280;4746;35.664;139.738;2022-10-30T02:42:54;100942.66;;;25.89;25.88
9415;BME280;4746;35.664;139.738;2022-10-30T02:45:22;100931.28;;;26.08;25.25
9415;BME280;4746;35.664;139.738;2022-10-30T02:47:50;100928.81;;;26.23;24.77
9415;BME280;4746;35.664;139.738;2022-10-30T02:50:18;100935.91;;;26.41;25.11
9415;BME280;4746;35.664;139.738;2022-10-30T02:52:45;100932.88;;;26.67;24.67
9415;BME280;4746;35.664;139.738;2022-10-30T02:55:13;100927.50;;;26.70;24.40
9415;BME280;4746;35.664;139.738;2022-10-30T02:57:40;100920.22;;;26.57;24.24
9415;BME280;4746;35.664;139.738;2022-10-30T03:00:09;100915.97;;;26.54;23.86
9415;BME280;4746;35.664;139.738;2022-10-30T03:02:36;100917.09;;;26.67;24.12
9415;BME280;4746;35.664;139.738;2022-10-30T03:05:04;100908.13;;;26.89;23.53
9415;BME280;4746;35.664;139.738;2022-10-30T03:07:32;100901.13;;;27.07;23.63
9415;BME280;4746;35.664;139.738;2022-10-30T03:10:00;100891.56;;;27.39;23.33
9415;BME280;4746;35.664;139.738;2022-10-30T03:12:27;100896.97;;;27.70;23.07
9415;BME280;4746;35.664;139.738;2022-10-30T03:14:55;100890.56;;;28.08;22.68
9415;BME280;4746;35.664;139.738;2022-10-30T03:17:25;100888.59;;;28.28;22.14
9415;BME280;4746;35.664;139.738;2022-10-30T03:19:52;100885.19;;;28.42;22.00
9415;BME280;4746;35.664;139.738;2022-10-30T03:22:20;100886.72;;;28.61;21.74
9415;BME280;4746;35.664;139.738;2022-10-30T03:24:48;100874.78;;;28.70;21.44
9415;BME280;4746;35.664;139.738;2022-10-30T03:27:16;100874.63;;;28.73;21.22
9415;BME280;4746;35.664;139.738;2022-10-30T03:29:44;100873.78;;;28.72;21.51
9415;BME280;4746;35.664;139.738;2022-10-30T03:32:11;100881.19;;;28.96;21.42
9415;BME280;4746;35.664;139.738;2022-10-30T03:34:39;100868.50;;;29.32;21.21
9415;BME280;4746;35.664;139.738;2022-10-30T03:37:06;100872.59;;;30.09;20.19
9415;BME280;4746;35.664;139.738;2022-10-30T03:39:34;100867.44;;;30.61;19.95
9415;BME280;4746;35.664;139.738;2022-10-30T03:42:02;100865.31;;;31.19;19.12
9415;BME280;4746;35.664;139.738;2022-10-30T03:44:29;100863.41;;;31.84;18.51
9415;BME280;4746;35.664;139.738;2022-10-30T03:46:57;100857.22;;;32.69;18.43
9415;BME280;4746;35.664;139.738;2022-10-30T03:49:25;100862.25;;;33.42;16.87
9415;BME280;4746;35.664;139.738;2022-10-30T03:51:52;100852.44;;;33.99;17.26
9415;BME280;4746;35.664;139.738;2022-10-30T03:54:22;100846.38;;;34.52;16.82
9415;BME280;4746;35.664;139.738;2022-10-30T03:56:50;100850.88;;;34.82;15.88
9415;BME280;4746;35.664;139.738;2022-10-30T03:59:17;100843.59;;;34.84;16.41
9415;BME280;4746;35.664;139.738;2022-10-30T04:01:45;100848.16;;;34.40;16.33
9415;BME280;4746;35.664;139.738;2022-10-30T04:04:12;100844.66;;;33.85;16.66
9415;BME280;4746;35.664;139.738;2022-10-30T04:06:40;100839.84;;;34.01;16.23
9415;BME280;4746;35.664;139.738;2022-10-30T04:09:08;100826.59;;;35.78;14.88
9415;BME280;4746;35.664;139.738;2022-10-30T04:11:36;100825.50;;;37.62;13.51
9415;BME280;4746;35.664;139.738;2022-10-30T04:14:04;100823.75;;;39.48;12.65
9415;BME280;4746;35.664;139.738;2022-10-30T04:16:31;100822.16;;;40.70;12.04
9415;BME280;4746;35.664;139.738;2022-10-30T04:18:59;100816.03;;;40.03;11.95
9415;BME280;4746;35.664;139.738;2022-10-30T04:21:26;100818.72;;;40.37;11.85
9415;BME280;4746;35.664;139.738;2022-10-30T04:23:54;100811.75;;;40.91;11.10
9415;BME280;4746;35.664;139.738;2022-10-30T04:26:22;100811.06;;;40.97;11.67
9415;BME280;4746;35.664;139.738;2022-10-30T04:28:50;100810.97;;;39.92;12.25
9415;BME280;4746;35.664;139.738;2022-10-30T04:31:17;100810.09;;;38.10;13.00
9415;BME280;4746;35.664;139.738;2022-10-30T04:33:45;100811.75;;;36.82;13.68
9415;BME280;4746;35.664;139.738;2022-10-30T04:36:12;100802.19;;;37.27;13.38
9415;BME280;4746;35.664;139.738;2022-10-30T04:38:41;100815.13;;;38.23;13.12
9415;BME280;4746;35.664;139.738;2022-10-30T04:41:09;100807.25;;;39.43;12.02
9415;BME280;4746;35.664;139.738;2022-10-30T04:43:36;100811.03;;;39.83;11.99
9415;BME280;4746;35.664;139.738;2022-10-30T04:46:07;100808.31;;;39.07;12.46
9415;BME280;4746;35.664;139.738;2022-10-30T04:48:34;100806.16;;;38.76;12.27
9415;BME280;4746;35.664;139.738;2022-10-30T04:51:03;100802.44;;;39.46;12.31
9415;BME280;4746;35.664;139.738;2022-10-30T04:53:49;100806.66;;;40.64;11.61
9415;BME280;4746;35.664;139.738;2022-10-30T04:56:16;100804.06;;;41.98;10.85
9415;BME280;4746;35.664;139.738;2022-10-30T04:58:44;100813.41;;;41.64;10.60
9415;BME280;4746;35.664;139.738;2022-10-30T05:01:12;100796.28;;;41.41;10.89
9415;BME280;4746;35.664;139.738;2022-10-30T05:03:40;100797.47;;;40.75;11.01
9415;BME280;4746;35.664;139.738;2022-10-30T05:06:22;100805.53;;;40.83;11.28
9415;BME280;4746;35.664;139.738;2022-10-30T05:08:51;100801.22;;;40.41;11.20
9415;BME280;4746;35.664;139.738;2022-10-30T05:11:19;100812.66;;;41.94;11.12
9415;BME280;4746;35.664;139.738;2022-10-30T05:13:46;100810.72;;;43.38;10.02
9415;BME280;4746;35.664;139.738;2022-10-30T05:16:14;100808.63;;;44.55;9.96
9415;BME280;4746;35.664;139.738;2022-10-30T05:18:42;100810.31;;;45.39;9.03
9415;BME280;4746;35.664;139.738;2022-10-30T05:21:10;100801.66;;;45.50;9.17
9415;BME280;4746;35.664;139.738;2022-10-30T05:23:39;100809.09;;;45.69;9.22
9415;BME280;4746;35.664;139.738;2022-10-30T05:26:07;100807.38;;;46.02;8.87
9415;BME280;4746;35.664;139.738;2022-10-30T05:28:34;100807.78;;;45.99;9.72
9415;BME280;4746;35.664;139.738;2022-10-30T05:31:02;100804.66;;;45.95;9.21
9415;BME280;4746;35.664;139.738;2022-10-30T05:33:30;100809.28;;;45.67;9.40
9415;BME280;4746;35.664;139.738;2022-10-30T05:35:57;100808.13;;;44.66;10.13
9415;BME280;4746;35.664;139.738;2022-10-30T05:38:27;100809.09;;;44.23;10.43
9415;BME280;4746;35.664;139.738;2022-10-30T05:40:55;100811.25;;;44.84;10.06
9415;BME280;4746;35.664;139.738;2022-10-30T05:43:24;100804.63;;;44.51;9.92
9415;BME280;4746;35.664;139.738;2022-10-30T05:45:52;100806.59;;;43.93;10.59
9415;BME280;4746;35.664;139.738;2022-10-30T05:48:21;100814.88;;;44.20;10.12
9415;BME280;4746;35.664;139.738;2022-10-30T05:50:49;100813.63;;;44.37;10.08
9415;BME280;4746;35.664;139.738;2022-10-30T05:53:16;100817.34;;;44.36;10.52
9415;BME280;4746;35.664;139.738;2022-10-30T05:55:44;100814.31;;;44.10;10.08
9415;BME280;4746;35.664;139.738;2022-10-30T05:58:11;100817.97;;;44.52;9.84
9415;BME280;4746;35.664;139.738;2022-10-30T06:00:40;100819.75;;;44.81;9.74
9415;BME280;4746;35.664;139.738;2022-10-30T06:03:11;100819.53;;;44.96;9.93
9415;BME280;4746;35.664;139.738;2022-10-30T06:05:40;100820.72;;;45.36;9.84
9415;BME280;4746;35.664;139.738;2022-10-30T06:08:10;100826.13;;;45.63;9.58
9415;BME280;4746;35.664;139.738;2022-10-30T06:10:38;100822.78;;;45.95;9.54
9415;BME280;4746;35.664;139.738;2022-10-30T06:13:09;100824.00;;;45.86;9.25
9415;BME280;4746;35.664;139.738;2022-10-30T06:15:37;100825.00;;;45.51;9.97
9415;BME280;4746;35.664;139.738;2022-10-30T06:18:04;100822.88;;;44.98;9.63
9415;BME280;4746;35.664;139.738;2022-10-30T06:20:32;100823.09;;;44.83;9.53
9415;BME280;4746;35.664;139.738;2022-10-30T06:23:05;100830.44;;;44.88;9.87
9415;BME280;4746;35.664;139.738;2022-10-30T06:25:45;100825.69;;;44.70;9.65
9415;BME280;4746;35.664;139.738;2022-10-30T06:31:41;100821.09;;;41.91;10.68
9415;BME280;4746;35.664;139.738;2022-10-30T06:34:44;100823.97;;;39.54;11.66
9415;BME280;4746;35.664;139.738;2022-10-30T06:37:27;100833.50;;;38.08;13.21
9415;BME280;4746;35.664;139.738;2022-10-30T06:43:47;100828.47;;;34.85;15.05
9415;BME280;4746;35.664;139.738;2022-10-30T06:46:57;100836.06;;;33.92;15.77
9415;BME280;4746;35.664;139.738;2022-10-30T06:49:53;100835.50;;;32.99;16.60
9415;BME280;4746;35.664;139.738;2022-10-30T06:52:21;100833.25;;;32.10;17.32
9415;BME280;4746;35.664;139.738;2022-10-30T06:54:50;100833.03;;;31.39;18.41
9415;BME280;4746;35.664;139.738;2022-10-30T06:57:17;100849.78;;;30.74;18.70
9415;BME280;4746;35.664;139.738;2022-10-30T06:59:48;100835.09;;;30.16;19.54
9415;BME280;4746;35.664;139.738;2022-10-30T07:02:16;100838.94;;;29.69;19.83
9415;BME280;4746;35.664;139.738;2022-10-30T07:04:46;100844.66;;;29.34;20.13
9415;BME280;4746;35.664;139.738;2022-10-30T07:07:14;100852.84;;;29.00;20.57
9415;BME280;4746;35.664;139.738;2022-10-30T07:09:43;100855.56;;;28.68;20.64
9415;BME280;4746;35.664;139.738;2022-10-30T07:12:13;100858.31;;;28.35;21.15
9415;BME280;4746;35.664;139.738;2022-10-30T07:14:41;100855.69;;;28.03;21.85
9415;BME280;4746;35.664;139.738;2022-10-30T07:17:09;100850.53;;;27.69;22.24
9415;BME280;4746;35.664;139.738;2022-10-30T07:19:37;100852.59;;;27.46;22.51
9415;BME280;4746;35.664;139.738;2022-10-30T07:22:24;100861.16;;;27.83;22.01
9415;BME280;4746;35.664;139.738;2022-10-30T07:24:52;100854.72;;;28.21;21.96
9415;BME280;4746;35.664;139.738;2022-10-30T07:27:19;100848.75;;;28.64;21.20
9415;BME280;4746;35.664;139.738;2022-10-30T07:29:47;100846.06;;;28.81;21.70
9415;BME280;4746;35.664;139.738;2022-10-30T07:32:15;100851.97;;;28.99;20.82
9415;BME280;4746;35.664;139.738;2022-10-30T07:34:43;100855.94;;;29.06;20.95
9415;BME280;4746;35.664;139.738;2022-10-30T07:37:10;100856.66;;;28.94;20.65
9415;BME280;4746;35.664;139.738;2022-10-30T07:39:38;100847.56;;;28.54;21.03
9415;BME280;4746;35.664;139.738;2022-10-30T07:42:06;100853.13;;;27.86;21.81
9415;BME280;4746;35.664;139.738;2022-10-30T07:44:33;100861.66;;;27.24;22.28
9415;BME280;4746;35.664;139.738;2022-10-30T07:47:03;100866.06;;;26.71;22.80
9415;BME280;4746;35.664;139.738;2022-10-30T07:49:31;100866.50;;;26.25;23.48
9415;BME280;4746;35.664;139.738;2022-10-30T07:51:58;100870.03;;;25.88;24.03
9415;BME280;4746;35.664;139.738;2022-10-30T07:54:26;100873.19;;;25.56;24.72
9415;BME280;4746;35.664;139.738;2022-10-30T07:56:53;100871.03;;;25.25;24.62
9415;BME280;4746;35.664;139.738;2022-10-30T07:59:21;100870.38;;;24.99;25.42
9415;BME280;4746;35.664;139.738;2022-10-30T08:01:48;100870.47;;;24.75;25.33
9415;BME280;4746;35.664;139.738;2022-10-30T08:04:18;100874.03;;;24.52;25.62
9415;BME280;4746;35.664;139.738;2022-10-30T08:06:46;100880.19;;;24.29;25.68
9415;BME280;4746;35.664;139.738;2022-10-30T08:09:15;100883.56;;;24.09;26.39
9415;BME280;4746;35.664;139.738;2022-10-30T08:11:42;100878.13;;;23.91;26.32
9415;BME280;4746;35.664;139.738;2022-10-30T08:14:10;100884.00;;;23.73;26.63
9415;BME280;4746;35.664;139.738;2022-10-30T08:16:40;100888.94;;;23.58;26.79
9415;BME280;4746;35.664;139.738;2022-10-30T08:19:07;100892.13;;;23.41;26.97
9415;BME280;4746;35.664;139.738;2022-10-30T08:21:35;100898.59;;;23.31;27.33
9415;BME280;4746;35.664;139.738;2022-10-30T08:24:02;100898.94;;;23.21;27.53
9415;BME280;4746;35.664;139.738;2022-10-30T08:26:30;100900.16;;;23.09;27.64
9415;BME280;4746;35.664;139.738;2022-10-30T08:28:58;100901.34;;;23.01;28.17
9415;BME280;4746;35.664;139.738;2022-10-30T08:31:27;100903.31;;;22.93;28.13
9415;BME280;4746;35.664;139.738;2022-10-30T08:33:55;100911.50;;;22.83;28.62
9415;BME280;4746;35.664;139.738;2022-10-30T08:36:23;100916.09;;;22.75;28.36
9415;BME280;4746;35.664;139.738;2022-10-30T08:38:50;100913.66;;;22.69;28.63
9415;BME280;4746;35.664;139.738;2022-10-30T08:41:19;100912.16;;;22.62;28.96
9415;BME280;4746;35.664;139.738;2022-10-30T08:43:46;100926.31;;;22.55;29.27
9415;BME280;4746;35.664;139.738;2022-10-30T08:46:14;100916.91;;;22.49;29.13
9415;BME280;4746;35.664;139.738;2022-10-30T08:48:42;100915.38;;;22.42;29.33
9415;BME280;4746;35.664;139.738;2022-10-30T08:51:09;100918.09;;;22.38;29.81
9415;BME280;4746;35.664;139.738;2022-10-30T08:53:37;100921.72;;;22.34;30.22
9415;BME280;4746;35.664;139.738;2022-10-30T08:56:05;100921.84;;;22.30;30.14
9415;BME280;4746;35.664;139.738;2022-10-30T08:58:33;100928.94;;;22.25;30.15
9415;BME280;4746;35.664;139.738;2022-10-30T09:01:02;100938.59;;;22.21;30.40
9415;BME280;4746;35.664;139.738;2022-10-30T09:03:30;100939.59;;;22.17;30.47
9415;BME280;4746;35.664;139.738;2022-10-30T09:05:59;100939.69;;;22.14;30.54
9415;BME280;4746;35.664;139.738;2022-10-30T09:08:27;100941.56;;;22.09;30.61
9415;BME280;4746;35.664;139.738;2022-10-30T09:10:57;100952.09;;;22.06;30.58
9415;BME280;4746;35.664;139.738;2022-10-30T09:13:25;100950.47;;;22.02;30.90
9415;BME280;4746;35.664;139.738;2022-10-30T09:15:53;100952.25;;;22.00;31.07
9415;BME280;4746;35.664;139.738;2022-10-30T09:18:21;100945.44;;;21.96;31.04
9415;BME280;4746;35.664;139.738;2022-10-30T09:20:49;100960.31;;;21.93;31.25
9415;BME280;4746;35.664;139.738;2022-10-30T09:23:16;100960.38;;;21.90;31.25
9415;BME280;4746;35.664;139.738;2022-10-30T09:25:44;100960.44;;;21.88;31.40
9415;BME280;4746;35.664;139.738;2022-10-30T09:28:11;100964.81;;;21.86;31.47
9415;BME280;4746;35.664;139.738;2022-10-30T09:30:39;100957.97;;;21.82;31.66
9415;BME280;4746;35.664;139.738;2022-10-30T09:33:07;100961.53;;;21.80;31.92
9415;BME280;4746;35.664;139.738;2022-10-30T09:35:35;100961.56;;;21.78;31.92
9415;BME280;4746;35.664;139.738;2022-10-30T09:38:02;100966.03;;;21.75;32.16
9415;BME280;4746;35.664;139.738;2022-10-30T09:41:14;100966.78;;;21.78;31.76
9415;BME280;4746;35.664;139.738;2022-10-30T09:46:42;100967.03;;;21.69;32.19
9415;BME280;4746;35.664;139.738;2022-10-30T09:49:23;100970.63;;;21.66;32.47
9415;BME280;4746;35.664;139.738;2022-10-30T09:55:12;100984.56;;;21.65;31.91
9415;BME280;4746;35.664;139.738;2022-10-30T09:58:17;100992.53;;;21.59;32.17
9415;BME280;4746;35.664;139.738;2022-10-30T10:01:16;100984.78;;;21.56;31.97
9415;BME280;4746;35.664;139.738;2022-10-30T10:07:26;101007.44;;;21.52;31.93
9415;BME280;4746;35.664;139.738;2022-10-30T10:10:04;101004.06;;;21.49;31.88
9415;BME280;4746;35.664;139.738;2022-10-30T10:12:44;101009.31;;;21.47;31.95
9415;BME280;4746;35.664;139.738;2022-10-30T10:15:46;100999.72;;;21.48;31.14
9415;BME280;4746;35.664;139.738;2022-10-30T10:22:00;101002.53;;;21.39;31.60
9415;BME280;4746;35.664;139.738;2022-10-30T10:24:38;101001.69;;;21.38;31.53
9415;BME280;4746;35.664;139.738;2022-10-30T10:30:21;101016.41;;;21.41;31.83
9415;BME280;4746;35.664;139.738;2022-10-30T10:36:49;101012.19;;;21.37;31.90
9415;BME280;4746;35.664;139.738;2022-10-30T10:39:49;101017.44;;;21.35;31.97
9415;BME280;4746;35.664;139.738;2022-10-30T10:42:37;101005.28;;;21.34;32.27
9415;BME280;4746;35.664;139.738;2022-10-30T10:48:43;101010.69;;;21.27;32.70
9415;BME280;4746;35.664;139.738;2022-10-30T10:54:22;101014.97;;;21.29;32.57
9415;BME280;4746;35.664;139.738;2022-10-30T10:56:55;101018.56;;;21.24;33.05
9415;BME280;4746;35.664;139.738;2022-10-30T10:59:36;101013.31;;;21.27;32.62
9415;BME280;4746;35.664;139.738;2022-10-30T11:07:57;101023.94;;;21.18;32.80
9415;BME280;4746;35.664;139.738;2022-10-30T11:10:28;101020.47;;;21.16;32.90
9415;BME280;4746;35.664;139.738;2022-10-30T11:12:59;101022.28;;;21.14;33.12
9415;BME280;4746;35.664;139.738;2022-10-30T11:18:19;101032.72;;;21.14;33.07
9415;BME280;4746;35.664;139.738;2022-10-30T11:21:23;101044.78;;;21.18;32.90
9415;BME280;4746;35.664;139.738;2022-10-30T11:23:52;101043.19;;;21.11;33.10
9415;BME280;4746;35.664;139.738;2022-10-30T11:29:00;101048.34;;;21.14;33.24
9415;BME280;4746;35.664;139.738;2022-10-30T11:31:34;101048.41;;;21.11;33.34
9415;BME280;4746;35.664;139.738;2022-10-30T11:36:51;101050.25;;;21.06;33.60
9415;BME280;4746;35.664;139.738;2022-10-30T11:39:31;101051.16;;;21.05;33.41
9415;BME280;4746;35.664;139.738;2022-10-30T11:42:18;101057.25;;;21.05;33.38
9415;BME280;4746;35.664;139.738;2022-10-30T11:44:49;101053.88;;;20.99;33.49
9415;BME280;4746;35.664;139.738;2022-10-30T11:47:35;101057.34;;;21.01;33.49
9415;BME280;4746;35.664;139.738;2022-10-30T11:50:29;101048.69;;;20.99;33.38
9415;BME280;4746;35.664;139.738;2022-10-30T11:53:09;101053.97;;;20.96;33.55
9415;BME280;4746;35.664;139.738;2022-10-30T11:55:49;101051.41;;;20.95;33.71
9415;BME280;4746;35.664;139.738;2022-10-30T11:58:43;101054.03;;;20.93;33.25
9415;BME280;4746;35.664;139.738;2022-10-30T12:03:48;101063.78;;;20.84;34.22
9415;BME280;4746;35.664;139.738;2022-10-30T12:06:27;101068.06;;;20.88;34.25
9415;BME280;4746;35.664;139.738;2022-10-30T12:09:13;101069.78;;;20.89;34.14
9415;BME280;4746;35.664;139.738;2022-10-30T12:11:43;101075.13;;;20.81;34.57
9415;BME280;4746;35.664;139.738;2022-10-30T12:14:26;101083.78;;;20.83;34.39
9415;BME280;4746;35.664;139.738;2022-10-30T12:17:02;101088.97;;;20.83;34.59
9415;BME280;4746;35.664;139.738;2022-10-30T12:19:32;101085.63;;;20.78;34.71
9415;BME280;4746;35.664;139.738;2022-10-30T12:22:01;101094.31;;;20.77;34.73
9415;BME280;4746;35.664;139.738;2022-10-30T12:24:39;101094.28;;;20.80;35.12
9415;BME280;4746;35.664;139.738;2022-10-30T12:27:15;101097.81;;;20.76;34.81
9415;BME280;4746;35.664;139.738;2022-10-30T12:30:04;101096.09;;;20.75;34.76
9415;BME280;4746;35.664;139.738;2022-10-30T12:33:09;101100.47;;;20.72;34.46
9415;BME280;4746;35.664;139.738;2022-10-30T12:38:33;101100.63;;;20.64;34.82
9415;BME280;4746;35.664;139.738;2022-10-30T12:44:31;101095.59;;;20.55;34.60
9415;BME280;4746;35.664;139.738;2022-10-30T12:49:50;101105.38;;;20.44;34.97
9415;BME280;4746;35.664;139.738;2022-10-30T12:52:30;101094.16;;;20.41;35.12
9415;BME280;4746;35.664;139.738;2022-10-30T12:55:30;101109.78;;;20.39;35.08
9415;BME280;4746;35.664;139.738;2022-10-30T13:01:00;101103.00;;;20.32;35.31
9415;BME280;4746;35.664;139.738;2022-10-30T13:03:45;101103.97;;;20.25;35.65
9415;BME280;4746;35.664;139.738;2022-10-30T13:06:43;101106.63;;;20.23;35.55
9415;BME280;4746;35.664;139.738;2022-10-30T13:09:26;101100.69;;;20.16;35.58
9415;BME280;4746;35.664;139.738;2022-10-30T13:12:02;101101.59;;;20.14;35.71
9415;BME280;4746;35.664;139.738;2022-10-30T13:17:14;101099.94;;;20.08;36.31
9415;BME280;4746;35.664;139.738;2022-10-30T13:19:44;101100.03;;;20.02;36.37
9415;BME280;4746;35.664;139.738;2022-10-30T13:22:28;101099.22;;;20.02;36.69
9415;BME280;4746;35.664;139.738;2022-10-30T13:36:14;101096.09;;;19.79;37.13
9415;BME280;4746;35.664;139.738;2022-10-30T13:39:21;101092.78;;;19.69;37.35
9415;BME280;4746;35.664;139.738;2022-10-30T13:53:21;101098.19;;;19.56;37.70
9415;BME280;4746;35.664;139.738;2022-10-30T13:55:54;101090.50;;;19.50;38.08
9415;BME280;4746;35.664;139.738;2022-10-30T13:58:34;101095.63;;;19.54;38.00
9415;BME280;4746;35.664;139.738;2022-10-30T14:01:23;101092.22;;;19.51;38.09
9415;BME280;4746;35.664;139.738;2022-10-30T14:10:14;101087.09;;;19.45;38.02
9415;BME280;4746;35.664;139.738;2022-10-30T14:13:24;101095.81;;;19.41;38.27
9415;BME280;4746;35.664;139.738;2022-10-30T14:16:03;101087.28;;;19.33;38.67
9415;BME280;4746;35.664;139.738;2022-10-30T14:18:45;101084.69;;;19.33;38.56
9415;BME280;4746;35.664;139.738;2022-10-30T14:21:55;101093.34;;;19.32;38.68
9415;BME280;4746;35.664;139.738;2022-10-30T14:24:34;101088.25;;;19.26;38.86
9415;BME280;4746;35.664;139.738;2022-10-30T14:27:17;101096.91;;;19.25;39.16
9415;BME280;4746;35.664;139.738;2022-10-30T14:29:51;101091.78;;;19.22;39.11
9415;BME280;4746;35.664;139.738;2022-10-30T14:34:57;101090.91;;;19.22;39.18
9415;BME280;4746;35.664;139.738;2022-10-30T14:39:57;101087.53;;;19.15;39.49
9415;BME280;4746;35.664;139.738;2022-10-30T14:42:53;101091.88;;;19.16;39.37
9415;BME280;4746;35.664;139.738;2022-10-30T14:45:31;101082.34;;;19.15;39.74
9415;BME280;4746;35.664;139.738;2022-10-30T14:51:44;101096.28;;;19.08;39.98
9415;BME280;4746;35.664;139.738;2022-10-30T14:54:32;101092.88;;;19.03;39.95
9415;BME280;4746;35.664;139.738;2022-10-30T14:57:21;101093.78;;;18.98;40.18
9415;BME280;4746;35.664;139.738;2022-10-30T15:00:51;101095.56;;;18.94;40.02
9415;BME280;4746;35.664;139.738;2022-10-30T15:12:13;101094.06;;;18.79;40.95
9415;BME280;4746;35.664;139.738;2022-10-30T15:14:53;101104.56;;;18.70;41.61
9415;BME280;4746;35.664;139.738;2022-10-30T15:17:36;101098.53;;;18.65;41.52
9415;BME280;4746;35.664;139.738;2022-10-30T15:20:29;101103.75;;;18.63;41.28
9415;BME280;4746;35.664;139.738;2022-10-30T15:23:27;101103.81;;;18.60;42.00
9415;BME280;4746;35.664;139.738;2022-10-30T15:26:00;101106.44;;;18.53;41.69
9415;BME280;4746;35.664;139.738;2022-10-30T15:28:32;101104.75;;;18.52;42.12
9415;BME280;4746;35.664;139.738;2022-10-30T15:31:06;101109.97;;;18.49;42.25
9415;BME280;4746;35.664;139.738;2022-10-30T15:33:37;101107.38;;;18.49;42.12
9415;BME280;4746;35.664;139.738;2022-10-30T15:36:21;101106.50;;;18.50;42.63
9415;BME280;4746;35.664;139.738;2022-10-30T15:39:12;101109.06;;;18.51;42.43